Terminal Aerodrome Forecast
Issued by NWS

Home | Current Version | Previous Version | Text Only | Print | Product List | Glossary On
Versions: 1 2 3 4 5 6 7 8 9 10 11 12 13 14 15
972
FTUS44 KTSA 032127 AAA
TAFMLC
TAF AMD
KMLC 032127Z 0321/0418 08007KT P6SM -RA SCT015 BKN060 OVC100
     FM032200 08007KT 4SM -RA BR BKN015 OVC050
     FM040200 08004KT 2SM -RA BR OVC007
     FM040800 08003KT 3SM -RA BR OVC003
     FM041500 VRB03KT 3SM BR BKN007=

USA.gov is the U.S. government's official web portal to all federal, state and local government web resources and services.